Time;durP1;ratioP1;P1;durP2;ratioP2;P2;SDS_P1;SDS_P2;PMS_P1;PMS_P2;Temp;Humidity;BMP_temperature;BMP_pressure;BME280_temperature;BME280_humidity;BME280_pressure;Samples;Min_cycle;Max_cycle;Signal;HPM_P1;HPM_P2
2023/04/03 00:01:04;;;;;;;;;25.75;24.00;;;;;9.76;54.56;102142.44;5059884;28;45300;-67
2023/04/03 00:03:30;;;;;;;;;30.50;24.50;;;;;9.78;54.63;102145.06;5041967;28;45466;-67
2023/04/03 00:05:55;;;;;;;;;23.25;21.25;;;;;9.73;54.67;102135.38;5059616;28;45385;-67
2023/04/03 00:08:21;;;;;;;;;26.00;24.25;;;;;9.76;54.67;102140.66;5059438;28;45253;-67
2023/04/03 00:10:46;;;;;;;;;30.75;27.50;;;;;9.75;54.52;102136.28;5059460;28;45262;-67
2023/04/03 00:13:12;;;;;;;;;25.00;21.75;;;;;9.78;54.72;102145.06;5059814;28;45298;-67
2023/04/03 00:15:38;;;;;;;;;30.75;24.00;;;;;9.74;54.96;102137.13;5041742;28;45288;-67
2023/04/03 00:18:05;;;;;;;;;28.25;24.50;;;;;9.75;54.82;102136.28;5059783;28;45174;-67
2023/04/03 00:20:30;;;;;;;;;23.75;22.75;;;;;9.74;54.86;102134.50;5062790;28;45256;-67
2023/04/03 00:22:55;;;;;;;;;32.75;26.25;;;;;9.72;54.83;102140.59;5063177;28;45337;-67
2023/04/03 00:25:21;;;;;;;;;26.50;23.00;;;;;9.73;54.91;102138.00;5079867;28;57462;-67
2023/04/03 00:27:46;;;;;;;;;28.25;28.25;;;;;9.74;54.64;102144.13;5083507;28;45363;-67
2023/04/03 00:30:15;;;;;;;;;30.75;27.50;;;;;9.71;54.88;102139.72;5083333;28;45237;-67
2023/04/03 00:32:41;;;;;;;;;31.50;27.50;;;;;9.73;54.58;102143.25;5083329;28;45288;-67
2023/04/03 00:35:06;;;;;;;;;29.25;25.50;;;;;9.69;54.94;102133.56;5061049;28;48195;-67
2023/04/03 00:37:32;;;;;;;;;26.25;23.25;;;;;9.71;54.79;102138.84;5062956;28;45312;-67
2023/04/03 00:39:57;;;;;;;;;28.25;26.25;;;;;9.70;54.90;102143.22;5062626;28;45253;-67
2023/04/03 00:42:23;;;;;;;;;25.50;21.75;;;;;9.70;54.70;102140.59;5062854;28;45475;-67
2023/04/03 00:44:49;;;;;;;;;26.25;21.00;;;;;9.71;54.85;102138.84;5062749;28;46132;-67
2023/04/03 00:47:17;;;;;;;;;25.50;24.00;;;;;9.71;54.89;102136.22;5044149;28;45329;-67
2023/04/03 00:49:44;;;;;;;;;33.00;31.00;;;;;9.69;54.77;102133.56;5044453;28;45322;-67
2023/04/03 00:52:15;;;;;;;;;35.00;29.00;;;;;9.70;54.75;102139.72;5062748;28;45715;-67
2023/04/03 00:54:43;;;;;;;;;29.50;26.25;;;;;9.70;54.82;102134.47;5044134;28;46930;-67
2023/04/03 00:57:10;;;;;;;;;29.50;25.50;;;;;9.66;54.78;102132.66;5062712;28;45316;-67
2023/04/03 00:59:43;;;;;;;;;33.25;29.25;;;;;9.68;54.84;102134.44;5062527;28;45275;-67
2023/04/03 01:02:09;;;;;;;;;36.75;29.25;;;;;9.61;54.68;102119.50;5062530;28;45364;-67
2023/04/03 01:04:38;;;;;;;;;30.50;26.25;;;;;9.69;54.64;102133.56;5044515;28;47697;-67
2023/04/03 01:07:23;;;;;;;;;37.00;31.75;;;;;9.66;54.70;102130.94;5062496;28;45325;-67
2023/04/03 01:09:52;;;;;;;;;36.00;33.00;;;;;9.69;54.90;102132.72;5062140;28;45246;-67
2023/04/03 01:12:24;;;;;;;;;35.00;29.00;;;;;9.67;54.66;102123.91;5044346;28;45403;-68
2023/04/03 01:14:52;;;;;;;;;24.75;23.25;;;;;9.69;54.89;102130.09;5062314;28;46707;-67
2023/04/03 01:17:33;;;;;;;;;31.00;27.00;;;;;9.68;54.95;102126.56;5044260;28;45364;-67
2023/04/03 01:20:22;;;;;;;;;33.00;31.00;;;;;9.68;54.94;102123.94;5062609;28;45288;-67
2023/04/03 01:23:09;;;;;;;;;25.50;25.00;;;;;9.67;54.76;102122.19;5076974;28;45315;-67
2023/04/03 01:25:42;;;;;;;;;26.50;25.50;;;;;9.67;54.77;102130.06;5082101;28;47113;-67
2023/04/03 01:28:15;;;;;;;;;32.50;24.00;;;;;9.67;54.70;102121.28;5082400;28;45330;-67
2023/04/03 01:31:00;;;;;;;;;32.25;29.00;;;;;9.66;54.94;102114.28;5081840;28;45359;-67
2023/04/03 01:33:26;;;;;;;;;33.00;27.75;;;;;9.65;54.60;102116.03;5033244;28;45763;-67
2023/04/03 01:35:51;;;;;;;;;31.00;22.50;;;;;9.65;54.80;102118.66;5071736;28;45303;-67
2023/04/03 01:38:16;;;;;;;;;33.00;28.50;;;;;9.63;54.59;102115.13;5061790;28;45296;-68
2023/04/03 01:40:42;;;;;;;;;31.25;27.75;;;;;9.64;54.50;102114.28;5061971;28;45486;-67
2023/04/03 01:43:08;;;;;;;;;38.50;33.00;;;;;9.64;54.85;102121.28;5061936;28;45448;-67
2023/04/03 01:45:33;;;;;;;;;36.25;32.50;;;;;9.64;54.91;102119.53;5061838;28;45453;-67
2023/04/03 01:47:58;;;;;;;;;36.25;30.00;;;;;9.63;54.77;102112.50;5061810;28;45371;-67
2023/04/03 01:50:24;;;;;;;;;31.50;29.75;;;;;9.61;54.67;102114.25;5061692;28;45848;-67
2023/04/03 01:52:49;;;;;;;;;35.00;30.50;;;;;9.61;54.89;102116.88;5061776;28;45396;-67
2023/04/03 01:55:14;;;;;;;;;37.50;31.00;;;;;9.60;54.92;102122.97;5043034;28;52642;-67
2023/04/03 01:57:40;;;;;;;;;33.00;29.25;;;;;9.59;54.98;102118.59;5043553;28;45320;-67
2023/04/03 02:00:07;;;;;;;;;34.25;31.75;;;;;9.57;54.97;102109.81;5062043;28;45404;-67
2023/04/03 02:02:32;;;;;;;;;35.50;30.00;;;;;9.58;54.97;102130.84;5061649;28;45225;-67
2023/04/03 02:04:58;;;;;;;;;39.50;33.75;;;;;9.58;54.88;102116.81;5061530;28;46059;-67
2023/04/03 02:07:23;;;;;;;;;32.50;29.50;;;;;9.58;54.84;102130.84;5061675;28;45171;-67
2023/04/03 02:09:49;;;;;;;;;38.75;32.75;;;;;9.59;55.08;102113.34;5061169;28;45220;-67
2023/04/03 02:12:14;;;;;;;;;38.50;34.00;;;;;9.55;54.76;102112.41;5061543;28;45297;-67
2023/04/03 02:14:40;;;;;;;;;36.75;34.00;;;;;9.54;54.61;102109.78;5061340;28;46882;-67
2023/04/03 02:17:08;;;;;;;;;31.50;30.00;;;;;9.54;55.17;102118.53;5061521;28;45219;-67
2023/04/03 02:19:35;;;;;;;;;33.75;32.25;;;;;9.58;54.96;102127.31;5061624;28;45274;-67
2023/04/03 02:22:00;;;;;;;;;35.50;30.25;;;;;9.56;54.94;102124.69;5061113;28;45477;-67
2023/04/03 02:24:26;;;;;;;;;30.00;25.75;;;;;9.55;55.14;102125.53;5070837;28;46412;-67
2023/04/03 02:26:51;;;;;;;;;35.50;29.25;;;;;9.54;54.75;102121.16;5081382;28;45154;-67
2023/04/03 02:29:17;;;;;;;;;32.00;26.75;;;;;9.53;55.06;102122.00;5063322;28;45248;-67
2023/04/03 02:31:42;;;;;;;;;32.25;31.00;;;;;9.54;54.71;102131.66;5063372;28;45757;-67
2023/04/03 02:34:08;;;;;;;;;32.00;25.50;;;;;9.54;54.89;102125.53;5063078;28;47494;-67
2023/04/03 02:36:33;;;;;;;;;29.75;26.75;;;;;9.52;54.82;102127.25;5064500;28;45275;-68
2023/04/03 02:38:59;;;;;;;;;27.50;25.25;;;;;9.53;54.98;102131.63;5042863;28;45412;-67
2023/04/03 02:41:27;;;;;;;;;26.50;25.25;;;;;9.48;54.85;102126.31;5042587;28;51082;-67
2023/04/03 02:43:52;;;;;;;;;28.00;27.00;;;;;9.51;55.17;102133.34;5042352;28;45309;-67
2023/04/03 02:46:18;;;;;;;;;34.00;30.50;;;;;9.49;54.81;102127.22;5060945;28;45478;-67
2023/04/03 02:48:43;;;;;;;;;30.50;26.25;;;;;9.47;54.84;102119.34;5042757;28;45356;-67
2023/04/03 02:51:09;;;;;;;;;24.25;19.25;;;;;9.48;54.98;102128.94;5042763;28;45611;-67
2023/04/03 02:53:34;;;;;;;;;34.00;28.00;;;;;9.48;54.96;102120.19;5042474;28;47525;-67
2023/04/03 02:56:00;;;;;;;;;27.75;25.25;;;;;9.48;55.06;102117.56;5042511;28;46029;-67
2023/04/03 02:58:26;;;;;;;;;29.50;28.50;;;;;9.46;54.87;102125.44;5043047;28;45268;-67
2023/04/03 03:00:51;;;;;;;;;22.25;22.25;;;;;9.46;54.70;102116.66;5060678;28;45440;-67
2023/04/03 03:03:17;;;;;;;;;29.75;25.50;;;;;9.40;54.79;102113.09;5060595;28;45915;-67
2023/04/03 03:05:42;;;;;;;;;23.25;22.75;;;;;9.44;55.05;102121.91;5060640;28;45214;-67
2023/04/03 03:08:07;;;;;;;;;18.75;18.00;;;;;9.43;54.97;102115.78;5060869;28;45154;-67
2023/04/03 03:10:32;;;;;;;;;27.00;27.00;;;;;9.39;55.04;102107.84;5060207;28;45365;-67
2023/04/03 03:12:58;;;;;;;;;22.50;19.75;;;;;9.41;54.60;102120.13;5060586;28;45338;-67
2023/04/03 03:15:23;;;;;;;;;26.75;25.25;;;;;9.40;54.73;102114.88;5060423;28;45288;-67
2023/04/03 03:17:49;;;;;;;;;22.00;21.50;;;;;9.40;54.90;102110.47;5042734;28;45502;-67
2023/04/03 03:20:15;;;;;;;;;24.50;22.00;;;;;9.39;55.02;102113.97;5042445;28;45578;-67
2023/04/03 03:22:40;;;;;;;;;27.25;23.75;;;;;9.39;54.71;102113.97;5060237;28;45316;-67
2023/04/03 03:25:06;;;;;;;;;22.50;19.75;;;;;9.39;54.79;102116.59;5075514;28;45471;-66
2023/04/03 03:27:31;;;;;;;;;25.25;21.75;;;;;9.39;54.59;102116.59;5053940;28;45328;-67
2023/04/03 03:29:56;;;;;;;;;23.75;21.50;;;;;9.37;54.84;102113.09;5060165;28;45403;-67
2023/04/03 03:32:22;;;;;;;;;29.75;24.25;;;;;9.35;54.91;102113.94;5060353;28;45329;-67
2023/04/03 03:34:47;;;;;;;;;21.50;19.25;;;;;9.36;54.63;102110.44;5048072;28;45410;-67
2023/04/03 03:37:12;;;;;;;;;28.50;25.50;;;;;9.35;54.60;102114.78;5060562;28;45448;-67
2023/04/03 03:39:38;;;;;;;;;26.25;19.75;;;;;9.35;54.51;102111.31;5059678;28;45332;-67
2023/04/03 03:42:03;;;;;;;;;24.50;22.25;;;;;9.34;54.73;102118.28;5060314;28;45361;-67
2023/04/03 03:44:29;;;;;;;;;27.75;24.75;;;;;9.33;54.36;102113.00;5041938;28;45353;-67
2023/04/03 03:46:55;;;;;;;;;25.25;21.25;;;;;9.29;54.67;102098.97;5060187;28;45447;-67
2023/04/03 03:49:20;;;;;;;;;22.50;21.50;;;;;9.29;54.76;102101.59;5059810;28;45407;-67
2023/04/03 03:51:46;;;;;;;;;25.50;23.75;;;;;9.31;54.45;102105.13;5059860;28;45182;-67
2023/04/03 03:54:12;;;;;;;;;30.75;27.50;;;;;9.29;54.73;102104.22;5059434;28;45403;-67
2023/04/03 03:56:38;;;;;;;;;22.25;21.25;;;;;9.28;54.65;102118.19;5060134;28;45267;-67
2023/04/03 03:59:03;;;;;;;;;25.25;24.75;;;;;9.29;54.70;102117.34;5059702;28;45190;-67
2023/04/03 04:01:29;;;;;;;;;21.75;20.75;;;;;9.24;54.46;102116.41;5059809;28;48091;-66
2023/04/03 04:03:55;;;;;;;;;23.75;20.75;;;;;9.26;54.59;102126.03;5059747;28;45243;-67
2023/04/03 04:06:21;;;;;;;;;27.50;23.50;;;;;9.26;54.88;102122.56;5059976;28;45628;-67
2023/04/03 04:08:46;;;;;;;;;21.00;19.25;;;;;9.26;54.53;102114.69;5059285;28;45455;-67
2023/04/03 04:11:12;;;;;;;;;14.75;14.50;;;;;9.24;54.59;102113.78;5059610;28;46240;-67
2023/04/03 04:13:37;;;;;;;;;24.50;23.50;;;;;9.23;54.74;102110.28;5041543;28;46711;-66
2023/04/03 04:16:03;;;;;;;;;22.50;20.25;;;;;9.20;54.64;102104.09;5041831;28;45480;-67
2023/04/03 04:18:28;;;;;;;;;17.25;14.75;;;;;9.19;54.61;102100.59;5059629;28;45407;-66
2023/04/03 04:20:54;;;;;;;;;23.25;20.25;;;;;9.19;54.80;102104.97;5059441;28;48173;-67
2023/04/03 04:23:19;;;;;;;;;25.75;23.75;;;;;9.22;54.54;102110.25;5059960;28;45350;-66
2023/04/03 04:25:46;;;;;;;;;25.00;21.75;;;;;9.21;54.26;102111.13;5079981;28;45288;-66
2023/04/03 04:28:12;;;;;;;;;21.00;20.00;;;;;9.18;54.59;102106.72;5079872;28;45365;-66
2023/04/03 04:30:37;;;;;;;;;27.00;22.50;;;;;9.17;54.39;102104.94;5079743;28;45221;-66
2023/04/03 04:33:03;;;;;;;;;23.50;21.50;;;;;9.20;54.46;102109.34;5079680;28;45221;-66
2023/04/03 04:35:28;;;;;;;;;23.75;23.25;;;;;9.18;54.42;102111.06;5072247;28;45438;-66
2023/04/03 04:37:54;;;;;;;;;20.25;17.00;;;;;9.17;54.39;102107.56;5041469;28;46383;-67
2023/04/03 04:40:19;;;;;;;;;22.00;17.75;;;;;9.17;54.39;102104.94;5058953;28;46261;-66
2023/04/03 04:42:45;;;;;;;;;29.25;23.00;;;;;9.15;54.46;102098.78;5059403;28;45233;-66
2023/04/03 04:45:10;;;;;;;;;25.75;23.25;;;;;9.16;54.49;102107.56;5059484;28;45303;-67
2023/04/03 04:47:36;;;;;;;;;23.75;21.75;;;;;9.13;54.29;102113.63;5059372;28;45301;-66
2023/04/03 04:50:01;;;;;;;;;30.75;22.25;;;;;9.14;54.44;102107.50;5040816;28;45554;-67
2023/04/03 04:52:26;;;;;;;;;25.75;23.00;;;;;9.14;54.09;102109.28;5041205;28;46843;-66
2023/04/03 04:54:52;;;;;;;;;15.25;15.25;;;;;9.13;54.15;102108.38;5058996;28;45371;-66
2023/04/03 04:57:17;;;;;;;;;25.75;23.00;;;;;9.11;54.21;102115.34;5059131;28;45312;-66
2023/04/03 04:59:42;;;;;;;;;26.50;21.75;;;;;9.11;54.18;102115.34;5040381;28;60946;-66
2023/04/03 05:02:08;;;;;;;;;26.25;22.50;;;;;9.10;54.18;102118.84;5041204;28;45493;-66
2023/04/03 05:04:33;;;;;;;;;22.75;19.00;;;;;9.10;54.09;102124.06;5059190;28;45325;-66
2023/04/03 05:06:59;;;;;;;;;22.00;19.75;;;;;9.09;54.39;102123.22;5061496;28;45399;-67
2023/04/03 05:09:24;;;;;;;;;25.50;23.25;;;;;9.08;54.05;102123.16;5061825;28;45986;-67
2023/04/03 05:11:50;;;;;;;;;18.50;18.25;;;;;9.09;54.11;102125.84;5062483;28;45442;-68
2023/04/03 05:14:16;;;;;;;;;26.50;23.50;;;;;9.05;53.93;102118.75;5062514;28;45291;-67
2023/04/03 05:16:41;;;;;;;;;26.75;23.25;;;;;9.08;54.04;102120.53;5044492;28;45253;-67
2023/04/03 05:19:06;;;;;;;;;22.50;22.50;;;;;9.05;53.84;102124.00;5062050;28;45253;-67
2023/04/03 05:21:32;;;;;;;;;20.50;20.00;;;;;9.07;54.09;102127.53;5062358;28;45300;-67
2023/04/03 05:23:59;;;;;;;;;26.75;23.00;;;;;9.07;53.94;102126.69;5049888;28;45364;-67
2023/04/03 05:26:25;;;;;;;;;23.75;23.75;;;;;9.05;53.93;102134.50;5064521;28;45206;-67
2023/04/03 05:28:51;;;;;;;;;23.75;21.75;;;;;9.06;53.95;102132.78;5082162;28;46163;-67
2023/04/03 05:31:17;;;;;;;;;25.25;22.00;;;;;9.04;53.71;102127.50;5064194;28;45505;-64
2023/04/03 05:33:42;;;;;;;;;25.50;21.00;;;;;9.04;53.81;102131.84;5082556;28;45293;-63
2023/04/03 05:36:08;;;;;;;;;25.75;22.25;;;;;9.02;53.67;102131.84;5069470;28;45316;-63
2023/04/03 05:38:34;;;;;;;;;24.00;21.50;;;;;8.98;53.77;102124.81;5061708;28;46189;-63
2023/04/03 05:40:59;;;;;;;;;25.00;24.00;;;;;9.01;53.71;102137.94;5061868;28;45395;-66
2023/04/03 05:43:25;;;;;;;;;16.75;16.75;;;;;8.99;53.76;102129.16;5062046;28;45305;-61
2023/04/03 05:45:51;;;;;;;;;25.00;22.25;;;;;8.97;53.59;102125.66;5066649;28;45401;-65
2023/04/03 05:48:16;;;;;;;;;23.75;23.25;;;;;8.97;54.11;102125.66;5066954;28;45225;-64
2023/04/03 05:50:42;;;;;;;;;22.25;21.75;;;;;8.98;53.62;102129.13;5063156;27;45219;-63
2023/04/03 05:53:20;;;;;;;;;24.00;20.75;;;;;8.95;53.46;102132.59;5069575;28;45194;-60
2023/04/03 05:55:46;;;;;;;;;24.00;19.25;;;;;8.92;53.64;102133.44;5067297;28;45458;-62
2023/04/03 05:58:11;;;;;;;;;23.50;22.50;;;;;8.95;53.26;102135.22;5066607;28;45600;-65
2023/04/03 06:00:37;;;;;;;;;21.00;20.75;;;;;8.94;53.72;102130.84;5072207;28;45419;-64
2023/04/03 06:03:03;;;;;;;;;23.00;20.25;;;;;8.93;53.50;102131.69;5071162;28;45509;-66
2023/04/03 06:05:28;;;;;;;;;26.00;23.00;;;;;8.94;53.56;102131.72;5051263;28;45408;-65
2023/04/03 06:07:54;;;;;;;;;22.50;22.00;;;;;8.93;53.42;102132.59;5069678;28;45688;-66
2023/04/03 06:10:19;;;;;;;;;23.50;21.50;;;;;8.92;53.24;102136.06;5069555;28;45395;-65
2023/04/03 06:12:45;;;;;;;;;29.75;26.00;;;;;8.93;53.53;102134.31;5073230;28;45260;-67
2023/04/03 06:15:11;;;;;;;;;21.75;19.75;;;;;8.91;53.31;102138.66;5074339;28;45655;-66
2023/04/03 06:17:37;;;;;;;;;25.75;22.50;;;;;8.92;53.42;102143.06;5063711;28;46500;-68
2023/04/03 06:20:03;;;;;;;;;23.25;20.75;;;;;8.92;53.48;102151.78;5067965;28;45409;-68
2023/04/03 06:22:29;;;;;;;;;19.50;19.50;;;;;8.93;53.63;102139.56;5067608;28;45186;-67
2023/04/03 06:24:55;;;;;;;;;20.50;14.25;;;;;8.92;53.57;102138.69;5078718;28;45654;-67
2023/04/03 06:27:20;;;;;;;;;22.00;19.00;;;;;8.91;53.47;102144.78;5074496;28;46372;-67
2023/04/03 06:29:45;;;;;;;;;23.50;22.25;;;;;8.91;53.41;102147.41;5062999;28;46493;-67
2023/04/03 06:32:11;;;;;;;;;18.75;18.00;;;;;8.91;53.34;102143.91;5062552;28;45455;-67
2023/04/03 06:34:36;;;;;;;;;24.00;18.75;;;;;8.91;53.24;102136.03;5062717;28;45590;-67
2023/04/03 06:37:02;;;;;;;;;19.50;15.75;;;;;8.91;53.69;102150.03;5074013;27;45504;-67
2023/04/03 06:39:27;;;;;;;;;23.00;21.50;;;;;8.91;53.19;102142.16;5072477;27;45704;-67
2023/04/03 06:41:53;;;;;;;;;24.75;21.50;;;;;8.90;53.11;102153.50;5072711;28;45522;-67
2023/04/03 06:44:18;;;;;;;;;21.00;18.25;;;;;8.90;52.95;102157.88;5076472;28;45452;-67
2023/04/03 06:46:46;;;;;;;;;19.50;17.00;;;;;8.91;53.04;102159.66;5072093;28;45887;-67
2023/04/03 06:49:11;;;;;;;;;20.50;20.00;;;;;8.91;53.39;102147.41;5075512;27;45380;-68
2023/04/03 06:51:37;;;;;;;;;16.25;16.25;;;;;8.90;53.18;102147.38;5082174;27;45613;-67
2023/04/03 06:54:05;;;;;;;;;17.25;16.00;;;;;8.92;52.98;102162.28;5069931;28;45344;-67
2023/04/03 06:56:31;;;;;;;;;27.00;22.00;;;;;8.92;53.19;102151.78;5080575;27;46043;-66
2023/04/03 06:58:59;;;;;;;;;23.50;22.75;;;;;8.93;53.12;102155.28;5085757;27;45336;-68
2023/04/03 07:01:27;;;;;;;;;19.50;19.50;;;;;8.92;53.17;102154.41;5042881;28;45325;-67
2023/04/03 07:03:53;;;;;;;;;20.75;17.75;;;;;8.91;53.11;102152.66;5064624;28;45261;-67
2023/04/03 07:06:19;;;;;;;;;23.00;18.50;;;;;8.94;53.21;102154.44;5066587;28;45494;-64
2023/04/03 07:08:45;;;;;;;;;17.25;16.25;;;;;8.97;53.00;102154.50;5068055;27;45451;-66
2023/04/03 07:11:12;;;;;;;;;20.50;18.50;;;;;8.94;53.25;102150.09;5067614;28;45518;-66
2023/04/03 07:13:38;;;;;;;;;21.00;19.50;;;;;8.98;52.93;102148.41;5065179;28;45501;-66
2023/04/03 07:16:05;;;;;;;;;16.75;16.00;;;;;9.00;53.11;102159.78;5075189;27;45394;-67
2023/04/03 07:18:31;;;;;;;;;23.75;18.75;;;;;9.00;53.13;102161.53;5060651;28;45255;-66
2023/04/03 07:20:56;;;;;;;;;20.75;18.50;;;;;9.00;52.94;102153.66;5071247;28;45348;-65
2023/04/03 07:23:21;;;;;;;;;17.50;16.25;;;;;8.97;52.81;102143.09;5060088;28;45206;-65
2023/04/03 07:25:48;;;;;;;;;18.50;18.00;;;;;9.05;53.02;102155.47;5059986;28;46034;-65
2023/04/03 07:28:15;;;;;;;;;17.75;16.75;;;;;9.07;53.04;102158.16;5059833;28;45530;-67
2023/04/03 07:30:46;;;;;;;;;20.75;19.75;;;;;9.10;53.17;102158.16;5080247;28;45409;-66
2023/04/03 07:33:12;;;;;;;;;17.00;14.75;;;;;9.13;52.83;102159.97;5080175;28;45178;-67
2023/04/03 07:35:38;;;;;;;;;20.50;18.00;;;;;9.11;52.97;102150.31;5068085;28;46201;-67
2023/04/03 07:38:04;;;;;;;;;15.50;15.50;;;;;9.17;52.99;102160.03;5065753;28;45278;-67
2023/04/03 07:40:29;;;;;;;;;15.75;14.75;;;;;9.19;53.09;102165.28;5080293;28;45208;-68
2023/04/03 07:42:56;;;;;;;;;21.25;19.25;;;;;9.23;53.27;102167.09;5061953;28;45738;-67
2023/04/03 07:45:22;;;;;;;;;14.00;14.00;;;;;9.25;53.09;102160.13;5080165;28;46075;-67
2023/04/03 07:47:48;;;;;;;;;22.25;19.00;;;;;9.26;53.22;102162.78;5079833;28;45423;-67
2023/04/03 07:50:13;;;;;;;;;17.00;16.75;;;;;9.28;53.06;102160.16;5079879;28;45369;-67
2023/04/03 07:52:39;;;;;;;;;16.75;13.00;;;;;9.34;53.12;102167.25;5079807;28;51115;-67
2023/04/03 07:55:05;;;;;;;;;20.00;14.50;;;;;9.36;53.07;102163.78;5079634;28;46238;-68
2023/04/03 07:57:30;;;;;;;;;14.75;13.00;;;;;9.39;53.32;102173.44;5079969;28;45280;-68
2023/04/03 07:59:56;;;;;;;;;17.50;15.25;;;;;9.43;53.22;102163.03;5066246;28;45398;-68
2023/04/03 08:02:21;;;;;;;;;23.75;18.00;;;;;9.44;52.98;102164.75;5067971;28;45315;-67
2023/04/03 08:04:47;;;;;;;;;19.75;16.00;;;;;9.48;53.07;102164.81;5073014;28;45257;-67
2023/04/03 08:07:12;;;;;;;;;20.50;18.25;;;;;9.53;52.86;102174.50;5041587;28;45962;-68
2023/04/03 08:09:37;;;;;;;;;15.50;15.00;;;;;9.57;53.28;102167.53;5068884;27;45590;-68
2023/04/03 08:12:03;;;;;;;;;16.25;15.75;;;;;9.58;53.28;102162.34;5059648;28;45344;-68
2023/04/03 08:14:31;;;;;;;;;14.25;13.00;;;;;9.64;53.28;102169.38;5059302;28;45435;-66
2023/04/03 08:16:56;;;;;;;;;14.50;13.75;;;;;9.68;53.04;102165.94;5059425;28;45279;-69
2023/04/03 08:19:22;;;;;;;;;14.50;12.75;;;;;9.70;53.01;102169.47;5069831;27;45308;-69
2023/04/03 08:21:47;;;;;;;;;9.50;8.25;;;;;9.75;53.10;102180.03;5087813;27;45402;-66
2023/04/03 08:24:12;;;;;;;;;8.00;8.00;;;;;9.79;53.11;102178.34;5060122;28;45568;-67
2023/04/03 08:26:38;;;;;;;;;8.00;7.00;;;;;9.81;52.83;102168.72;5059399;28;45368;-67
2023/04/03 08:29:04;;;;;;;;;14.00;13.25;;;;;9.84;52.89;102164.38;5059153;28;45357;-68
2023/04/03 08:31:29;;;;;;;;;15.25;11.50;;;;;9.87;52.79;102171.41;5059119;28;46183;-69
2023/04/03 08:33:56;;;;;;;;;10.75;9.75;;;;;9.89;53.03;102167.94;5059435;28;45306;-68
2023/04/03 08:36:27;;;;;;;;;11.50;10.25;;;;;9.90;52.77;102166.22;5078636;28;45190;-68
2023/04/03 08:38:55;;;;;;;;;6.00;6.00;;;;;9.97;52.60;102161.91;5062145;28;45594;-68
2023/04/03 08:41:43;;;;;;;;;6.00;6.00;;;;;9.98;52.81;102166.28;5080832;28;45490;-67
2023/04/03 08:44:27;;;;;;;;;6.00;6.00;;;;;10.00;52.78;102165.44;5072002;28;46119;-67
2023/04/03 08:47:04;;;;;;;;;6.00;6.00;;;;;10.02;52.44;102170.72;5096225;27;45193;-67
2023/04/03 08:49:37;;;;;;;;;6.00;6.00;;;;;10.02;52.68;102168.06;5068607;28;45467;-67
2023/04/03 08:52:08;;;;;;;;;12.00;9.00;;;;;10.05;52.54;102168.09;5021005;28;45328;-67
2023/04/03 08:54:40;;;;;;;;;7.50;7.50;;;;;10.00;52.43;102152.31;5022415;28;46845;-68
2023/04/03 08:57:06;;;;;;;;;8.75;8.00;;;;;10.07;52.59;102167.28;5022830;28;45561;-68
2023/04/03 08:59:35;;;;;;;;;5.75;4.75;;;;;10.11;52.42;102164.66;5036507;28;45655;-68
2023/04/03 09:02:12;;;;;;;;;8.75;8.00;;;;;10.13;52.24;102162.94;5032637;28;45430;-68
2023/04/03 09:04:38;;;;;;;;;8.00;7.75;;;;;10.15;52.33;102167.34;5035319;28;45260;-68
2023/04/03 09:07:13;;;;;;;;;7.50;7.00;;;;;10.17;52.46;102167.38;5022344;28;45229;-68
2023/04/03 09:09:42;;;;;;;;;9.00;8.25;;;;;10.20;52.43;102165.66;5022323;28;45333;-68
2023/04/03 09:12:14;;;;;;;;;10.25;9.00;;;;;10.23;52.08;102163.03;5034136;28;50494;-68
2023/04/03 09:15:15;;;;;;;;;12.00;8.00;;;;;10.26;52.39;102170.06;5040307;28;46803;-68
2023/04/03 09:17:45;;;;;;;;;12.00;9.75;;;;;10.27;52.15;102158.69;5021558;28;45472;-68
2023/04/03 09:20:38;;;;;;;;;11.00;9.00;;;;;10.30;52.16;102166.63;5022090;28;45288;-68
2023/04/03 09:23:19;;;;;;;;;7.00;6.25;;;;;10.33;52.23;102166.66;5031196;28;45592;-68
2023/04/03 09:25:45;;;;;;;;;12.00;9.50;;;;;10.36;52.29;102166.72;5023471;28;45378;-68
2023/04/03 09:28:10;;;;;;;;;10.00;8.00;;;;;10.38;52.18;102158.84;5021855;28;45287;-68
2023/04/03 09:30:37;;;;;;;;;8.25;6.00;;;;;10.42;52.11;102160.63;5020677;28;45467;-67
2023/04/03 09:33:04;;;;;;;;;5.25;5.25;;;;;10.49;52.01;102157.19;5020691;28;45451;-68
2023/04/03 09:35:36;;;;;;;;;5.25;5.25;;;;;10.55;51.92;102157.25;5034934;28;46283;-68
2023/04/03 09:38:11;;;;;;;;;7.25;7.00;;;;;10.60;51.79;102157.28;5028960;28;45178;-68
2023/04/03 09:40:48;;;;;;;;;4.00;2.75;;;;;10.69;51.89;102160.00;5029204;28;45501;-68
2023/04/03 09:43:17;;;;;;;;;8.50;7.00;;;;;10.79;52.12;102158.31;5025845;28;45181;-68
2023/04/03 09:45:44;;;;;;;;;8.50;7.25;;;;;10.90;52.10;102158.38;5021615;28;47016;-68
2023/04/03 09:48:12;;;;;;;;;6.25;6.25;;;;;11.04;51.99;102146.22;5021409;28;45395;-68
2023/04/03 09:51:01;;;;;;;;;7.00;7.00;;;;;11.20;52.14;102149.78;5039884;28;45237;-68
2023/04/03 09:53:38;;;;;;;;;6.75;6.75;;;;;11.39;52.31;102149.91;5067669;28;45533;-67
2023/04/03 09:56:15;;;;;;;;;9.50;8.00;;;;;11.63;52.49;102146.47;5069698;27;45397;-67
2023/04/03 09:58:44;;;;;;;;;8.50;7.75;;;;;11.87;52.72;102148.34;5090776;27;45332;-67
2023/04/03 10:01:29;;;;;;;;;8.00;8.00;;;;;12.13;52.75;102146.69;5078033;28;45316;-67
2023/04/03 10:04:18;;;;;;;;;5.75;5.25;;;;;12.44;52.91;102151.97;5054824;28;45452;-67
2023/04/03 10:06:49;;;;;;;;;6.50;6.50;;;;;12.66;52.78;102148.44;5069593;28;45417;-67
2023/04/03 10:09:22;;;;;;;;;8.25;8.25;;;;;12.91;52.87;102144.94;5066721;28;45302;-68
2023/04/03 10:11:57;;;;;;;;;6.00;6.00;;;;;13.15;53.01;102142.22;5071451;28;45301;-68
2023/04/03 10:14:22;;;;;;;;;6.25;6.25;;;;;13.32;52.49;102142.19;5064079;28;45339;-67
2023/04/03 10:17:09;;;;;;;;;7.00;6.25;;;;;13.51;52.23;102134.22;5043259;28;47075;-67
2023/04/03 10:19:40;;;;;;;;;6.00;6.00;;;;;13.63;52.46;102133.28;5068435;28;45225;-69
2023/04/03 10:22:32;;;;;;;;;8.50;8.50;;;;;13.79;52.22;102121.75;5066901;28;45320;-67
2023/04/03 10:25:10;;;;;;;;;4.75;4.50;;;;;13.91;51.77;102130.50;5060891;28;45343;-67
2023/04/03 10:27:40;;;;;;;;;9.75;8.00;;;;;13.98;51.52;102111.94;5067575;28;47103;-67
2023/04/03 10:30:30;;;;;;;;;8.50;7.75;;;;;14.16;51.95;102111.84;5067702;28;45368;-67
2023/04/03 10:33:29;;;;;;;;;7.75;7.00;;;;;14.30;51.77;102115.22;5070808;28;45355;-67
2023/04/03 10:36:19;;;;;;;;;7.75;7.00;;;;;14.47;51.27;102109.81;5078044;28;45465;-67
2023/04/03 10:39:12;;;;;;;;;8.75;7.75;;;;;14.65;51.62;102114.09;5061865;28;45652;-67
2023/04/03 10:42:16;;;;;;;;;8.25;7.75;;;;;14.84;51.65;102104.22;5060734;28;45349;-67
2023/04/03 10:45:19;;;;;;;;;7.00;7.00;;;;;15.08;51.35;102096.88;5047337;28;45367;-67
2023/04/03 10:47:57;;;;;;;;;9.75;9.00;;;;;15.31;51.76;102096.63;5060732;28;45203;-67
2023/04/03 10:50:29;;;;;;;;;8.25;7.00;;;;;15.55;51.92;102095.41;5068391;28;45426;-67
2023/04/03 10:53:22;;;;;;;;;10.25;9.75;;;;;15.84;51.77;102099.47;5064916;28;45455;-67
2023/04/03 10:55:47;;;;;;;;;7.75;7.00;;;;;16.12;51.81;102093.75;5060617;28;45276;-67
2023/04/03 10:58:27;;;;;;;;;6.75;6.75;;;;;16.40;51.84;102088.88;5063880;28;45409;-67
2023/04/03 11:00:55;;;;;;;;;6.75;5.00;;;;;16.72;51.79;102078.59;5078461;28;46546;-67
2023/04/03 11:03:32;;;;;;;;;8.25;7.00;;;;;17.03;51.80;102075.34;5070749;28;45489;-67
2023/04/03 11:06:01;;;;;;;;;6.50;6.00;;;;;17.40;51.95;102071.06;5060564;28;45297;-67
2023/04/03 11:08:31;;;;;;;;;4.25;3.50;;;;;17.71;52.12;102072.13;5060327;28;45356;-67
2023/04/03 11:11:04;;;;;;;;;8.50;7.50;;;;;18.06;51.97;102066.88;5063052;28;45341;-67
2023/04/03 11:13:42;;;;;;;;;7.00;6.25;;;;;18.45;51.82;102072.13;5070347;28;45301;-67
2023/04/03 11:16:10;;;;;;;;;6.75;5.50;;;;;18.81;51.78;102069.38;5060203;28;45535;-67
2023/04/03 11:18:40;;;;;;;;;7.00;5.75;;;;;19.20;51.53;102071.00;5060322;28;45538;-67
2023/04/03 11:21:41;;;;;;;;;6.25;5.75;;;;;19.64;51.60;102066.09;5059947;28;46161;-67
2023/04/03 11:24:16;;;;;;;;;5.50;5.50;;;;;20.03;51.53;102067.56;5019102;28;45434;-67
2023/04/03 11:26:44;;;;;;;;;5.00;5.00;;;;;20.33;51.57;102059.44;5067977;28;45438;-68